createdAt,value
2022-10-11T00:00:38.466Z,13.52
2022-10-11T00:06:00.346Z,15.18
2022-10-11T00:11:22.242Z,12.82
2022-10-11T00:16:44.441Z,13.65
2022-10-11T00:22:06.533Z,14.38
2022-10-11T00:27:28.426Z,11.40
2022-10-11T00:32:50.309Z,14.15
2022-10-11T00:38:12.174Z,15.00
2022-10-11T00:43:34.676Z,13.07
2022-10-11T00:49:02.874Z,18.65
2022-10-11T00:54:28.816Z,15.57
2022-10-11T00:59:53.833Z,13.20
2022-10-11T01:05:29.064Z,15.35
2022-10-11T01:10:52.032Z,14.07
2022-10-11T01:16:23.542Z,15.20
2022-10-11T01:21:52.086Z,13.82
2022-10-11T01:27:29.413Z,13.05
2022-10-11T01:33:17.138Z,16.75
2022-10-11T01:38:50.598Z,15.05
2022-10-11T01:44:13.567Z,15.93
2022-10-11T01:49:35.404Z,13.98
2022-10-11T01:55:31.058Z,15.70
2022-10-11T02:01:03.381Z,12.90
2022-10-11T02:06:46.962Z,13.35
2022-10-11T02:12:12.468Z,13.45
2022-10-11T02:17:39.296Z,11.68
2022-10-11T02:23:07.980Z,12.18
2022-10-11T02:28:35.444Z,15.30
2022-10-11T02:34:05.347Z,12.85
2022-10-11T02:39:34.125Z,14.48
2022-10-11T02:45:04.293Z,12.93
2022-10-11T02:50:27.035Z,19.98
2022-10-11T02:55:51.447Z,21.35
2022-10-11T03:01:13.911Z,14.75
2022-10-11T03:06:35.874Z,13.38
2022-10-11T03:11:57.763Z,13.73
2022-10-11T03:17:35.679Z,13.20
2022-10-11T03:22:58.228Z,15.20
2022-10-11T03:28:20.620Z,13.90
2022-10-11T03:33:42.485Z,13.93
2022-10-11T03:39:04.507Z,13.27
2022-10-11T03:44:26.615Z,15.85
2022-10-11T03:49:48.490Z,12.32
2022-10-11T03:55:10.310Z,15.13
2022-10-11T04:00:33.326Z,14.63
2022-10-11T04:05:55.301Z,17.58
2022-10-11T04:11:17.164Z,15.82
2022-10-11T04:16:38.956Z,15.00
2022-10-11T04:22:00.816Z,17.80
2022-10-11T04:27:22.700Z,22.20
2022-10-11T04:32:44.695Z,13.25
2022-10-11T04:38:06.548Z,15.80
2022-10-11T04:43:28.598Z,14.43
2022-10-11T04:48:51.052Z,20.00
2022-10-11T04:54:12.893Z,19.38
2022-10-11T04:59:34.721Z,16.67
2022-10-11T05:04:56.538Z,15.85
2022-10-11T05:10:18.481Z,16.90
2022-10-11T05:15:40.359Z,18.70
2022-10-11T05:21:03.400Z,17.80
2022-10-11T05:26:27.136Z,19.08
2022-10-11T05:31:48.953Z,16.92
2022-10-11T05:37:10.820Z,18.08
2022-10-11T05:42:33.145Z,18.88
2022-10-11T05:47:54.966Z,16.63
2022-10-11T05:53:16.901Z,21.48
2022-10-11T05:58:39.623Z,20.63
2022-10-11T06:04:01.457Z,18.58
2022-10-11T06:09:23.294Z,22.25
2022-10-11T06:14:45.121Z,18.17
2022-10-11T06:20:07.559Z,20.13
2022-10-11T06:25:44.465Z,16.23
2022-10-11T06:31:07.153Z,16.50
2022-10-11T06:36:28.982Z,12.98
2022-10-11T06:41:50.829Z,11.73
2022-10-11T06:47:12.669Z,17.55
2022-10-11T06:52:34.492Z,13.13
2022-10-11T06:57:57.125Z,12.45
2022-10-11T07:03:19.006Z,10.82
2022-10-11T07:08:41.174Z,10.32
2022-10-11T07:14:05.854Z,13.80
2022-10-11T07:19:27.732Z,12.07
2022-10-11T07:24:49.590Z,12.35
2022-10-11T07:30:11.776Z,14.18
2022-10-11T07:35:37.493Z,12.02
2022-10-11T07:40:59.582Z,16.00
2022-10-11T07:46:21.419Z,14.65
2022-10-11T07:51:43.714Z,13.07
2022-10-11T07:57:05.533Z,12.52
2022-10-11T08:02:27.411Z,14.65
2022-10-11T08:07:49.336Z,12.38
2022-10-11T08:13:11.396Z,16.08
2022-10-11T08:18:33.617Z,13.00
2022-10-11T08:23:55.509Z,14.43
2022-10-11T08:29:17.755Z,14.23
2022-10-11T08:34:39.593Z,10.90
2022-10-11T08:40:01.522Z,15.05
2022-10-11T08:45:42.684Z,12.98
2022-10-11T08:51:19.483Z,13.48
2022-10-11T08:56:41.744Z,11.02
2022-10-11T09:02:19.843Z,12.02
2022-10-11T09:07:56.620Z,16.17
2022-10-11T09:13:39.897Z,13.65
2022-10-11T09:19:37.181Z,11.95
2022-10-11T09:25:04.869Z,14.20
2022-10-11T09:30:26.812Z,13.35
2022-10-11T09:35:52.496Z,10.88
2022-10-11T09:41:22.114Z,9.97
2022-10-11T09:46:45.532Z,10.00
2022-10-11T09:52:15.493Z,9.98
2022-10-11T09:57:39.780Z,13.15
2022-10-11T10:03:04.024Z,9.45
2022-10-11T10:08:26.035Z,8.35
2022-10-11T10:13:54.603Z,10.80
2022-10-11T10:19:21.283Z,7.93
2022-10-11T10:24:43.367Z,7.07
2022-10-11T10:30:08.221Z,11.13
2022-10-11T10:35:35.528Z,8.18
2022-10-11T10:41:01.451Z,9.70
2022-10-11T10:46:28.877Z,8.33
2022-10-11T10:51:57.970Z,8.60
2022-10-11T10:57:28.514Z,5.82
2022-10-11T11:02:53.377Z,5.88
2022-10-11T11:08:36.760Z,8.55
2022-10-11T11:14:03.015Z,8.30
2022-10-11T11:19:38.181Z,6.43
2022-10-11T11:25:08.887Z,5.68
2022-10-11T11:30:54.252Z,6.80
2022-10-11T11:37:03.594Z,6.25
2022-10-11T11:42:39.237Z,6.00
2022-10-11T11:48:10.617Z,5.57
2022-10-11T11:53:47.869Z,6.03
2022-10-11T11:59:45.990Z,7.82
2022-10-11T12:05:10.810Z,7.15
2022-10-11T12:10:54.502Z,6.47
2022-10-11T12:16:17.383Z,8.82
2022-10-11T12:21:43.392Z,8.07
2022-10-11T12:27:37.013Z,8.80
2022-10-11T12:33:18.855Z,8.07
2022-10-11T12:38:40.710Z,6.15
2022-10-11T12:44:24.948Z,8.60
2022-10-11T12:49:47.002Z,7.70
2022-10-11T12:55:44.856Z,8.75
2022-10-11T13:01:09.410Z,5.70
2022-10-11T13:06:35.759Z,8.48
2022-10-11T13:12:09.055Z,8.30
2022-10-11T13:17:38.480Z,8.73
2022-10-11T13:23:00.783Z,8.75
2022-10-11T13:28:23.699Z,6.70
2022-10-11T13:33:46.391Z,6.55
2022-10-11T13:39:28.377Z,6.10
2022-10-11T13:44:52.824Z,6.85
2022-10-11T13:50:17.430Z,7.07
2022-10-11T13:55:42.072Z,8.60
2022-10-11T14:01:07.983Z,5.78
2022-10-11T14:06:52.349Z,5.87
2022-10-11T14:12:31.298Z,9.23
2022-10-11T14:17:53.291Z,4.60
2022-10-11T14:23:15.277Z,6.95
2022-10-11T14:28:37.179Z,7.65
2022-10-11T14:33:59.245Z,4.65
2022-10-11T14:39:24.261Z,9.38
2022-10-11T14:44:46.334Z,8.73
2022-10-11T14:50:23.387Z,7.70
2022-10-11T14:55:45.492Z,8.45
2022-10-11T15:01:10.085Z,12.43
2022-10-11T15:06:36.555Z,9.75
2022-10-11T15:11:58.589Z,12.15
2022-10-11T15:17:20.441Z,12.00
2022-10-11T15:22:42.281Z,8.65
2022-10-11T15:28:05.401Z,11.02
2022-10-11T15:33:27.303Z,11.43
2022-10-11T15:38:49.483Z,11.73
2022-10-11T15:44:11.291Z,8.00
2022-10-11T15:49:33.122Z,9.35
2022-10-11T15:54:54.934Z,7.90
2022-10-11T16:00:21.954Z,10.98
2022-10-11T16:05:44.276Z,8.95
2022-10-11T16:11:07.648Z,6.80
2022-10-11T16:16:29.474Z,11.77
2022-10-11T16:21:51.273Z,6.28
2022-10-11T16:27:16.550Z,10.23
2022-10-11T16:32:41.431Z,10.25
2022-10-11T16:38:03.292Z,12.15
2022-10-11T16:43:25.122Z,10.85
2022-10-11T16:48:47.732Z,9.35
2022-10-11T16:54:09.609Z,10.77
2022-10-11T16:59:31.428Z,11.68
2022-10-11T17:04:53.557Z,10.10
2022-10-11T17:10:15.444Z,11.70
2022-10-11T17:15:37.706Z,11.95
2022-10-11T17:21:04.674Z,11.43
2022-10-11T17:26:27.218Z,12.98
2022-10-11T17:31:49.578Z,7.72
2022-10-11T17:37:11.486Z,9.15
2022-10-11T17:42:33.341Z,13.85
2022-10-11T17:47:55.189Z,12.02
2022-10-11T17:53:17.066Z,11.60
2022-10-11T17:58:39.274Z,8.93
2022-10-11T18:04:04.192Z,11.13
2022-10-11T18:09:26.004Z,14.63
2022-10-11T18:14:47.871Z,13.75
2022-10-11T18:20:10.162Z,7.22
2022-10-11T18:25:33.554Z,14.10
2022-10-11T18:30:55.357Z,7.68
2022-10-11T18:36:19.776Z,11.98
2022-10-11T18:41:42.507Z,9.93
2022-10-11T18:47:04.610Z,9.88
2022-10-11T18:52:26.418Z,11.00
2022-10-11T18:57:48.226Z,9.50
2022-10-11T19:03:10.047Z,11.63
2022-10-11T19:08:32.519Z,11.32
2022-10-11T19:14:08.448Z,15.32
2022-10-11T19:19:31.096Z,10.63
2022-10-11T19:24:53.013Z,14.15
2022-10-11T19:30:15.030Z,13.38
2022-10-11T19:35:36.878Z,18.42
2022-10-11T19:41:00.665Z,15.73
2022-10-11T19:46:44.311Z,16.67
2022-10-11T19:52:04.457Z,15.77
2022-10-11T19:57:26.319Z,14.70
2022-10-11T20:02:49.097Z,14.05
2022-10-11T20:08:10.929Z,15.63
2022-10-11T20:13:35.056Z,14.57
2022-10-11T20:18:58.155Z,16.15
2022-10-11T20:24:19.972Z,17.10
2022-10-11T20:29:41.763Z,17.13
2022-10-11T20:35:03.873Z,16.92
2022-10-11T20:40:25.740Z,13.45
2022-10-11T20:46:05.032Z,21.27
2022-10-11T20:51:26.895Z,20.70
2022-10-11T20:56:48.947Z,17.25
2022-10-11T21:02:12.610Z,22.50
2022-10-11T21:07:37.233Z,21.45
2022-10-11T21:12:59.112Z,25.40
2022-10-11T21:18:21.340Z,20.77
2022-10-11T21:23:43.375Z,16.48
2022-10-11T21:29:05.229Z,22.08
2022-10-11T21:34:27.451Z,20.73
2022-10-11T21:39:49.279Z,19.48
2022-10-11T21:45:11.082Z,19.90
2022-10-11T21:50:32.955Z,17.15
2022-10-11T21:55:58.934Z,24.35
2022-10-11T22:01:21.277Z,20.53
2022-10-11T22:06:43.154Z,16.98
2022-10-11T22:12:05.418Z,21.38
2022-10-11T22:17:27.258Z,23.33
2022-10-11T22:22:49.050Z,19.88
2022-10-11T22:28:10.960Z,17.60
2022-10-11T22:33:33.252Z,20.50
2022-10-11T22:38:55.181Z,20.05
2022-10-11T22:44:17.032Z,20.17
2022-10-11T22:49:38.876Z,22.33
2022-10-11T22:55:00.883Z,23.20
2022-10-11T23:00:22.734Z,27.67
2022-10-11T23:05:54.187Z,23.40
2022-10-11T23:11:15.975Z,25.45
2022-10-11T23:16:38.008Z,23.30
2022-10-11T23:21:59.804Z,27.77
2022-10-11T23:27:21.772Z,26.35
2022-10-11T23:32:43.600Z,28.88
2022-10-11T23:38:05.424Z,24.45
2022-10-11T23:43:27.298Z,23.23
2022-10-11T23:48:49.189Z,23.60
2022-10-11T23:54:11.109Z,27.35
2022-10-11T23:59:32.947Z,25.70
